Terminal Aerodrome Forecast
Issued by NWS Sterling, VA

Current Version | Previous Version | Text Only | Print | Product List | Glossary On
Versions: 1 2 3 4 5 6 7 8 9 10 11 12 13 14 15 16 17 18 19 20 21 22 23
000
FTUS41 KLWX 280908 AAA
TAFDCA
TAF AMD
KDCA 280908Z 2809/0106 17004KT P6SM BKN090 BKN100
     FM281100 VRB03KT P6SM FEW060 SCT090
     FM281700 18007KT P6SM SCT040 BKN250
     FM282100 18009KT P6SM -SHRA SCT040 OVC100
     FM010000 17008KT 3SM -SHRA SCT025 OVC030
     FM010300 20009KT 3SM -SHRA BKN010 OVC025=

USA.gov is the U.S. government's official web portal to all federal, state and local government web resources and services.